Southwestern Grand Banks: Past 24 Hour Conditions

 

Cartwright Airport

02:00 PM AST 23 November 2014
This table is a summary of hourly weather conditions for the past 24 hours.
Date / Time
(AST)
Wind(knots) Conditions Visibility(km) Pressure(kPa) Air tempC) Relative humidity(%) Dew pointC) Wind Chill
23 November 2014
14:00 W 10 Mostly Cloudy 24 99.8 -7 55 -14 -13
13:00 W 9 gust 16 Mostly Cloudy 24 99.7 -7 53 -15 -13
12:00 W 10 gust 21 Partly Cloudy 24 99.5 -7 54 -15 -14
11:00 W 19 gust 27 Mostly Cloudy 24 99.5 -8 62 -14 -17
10:00 WSW 16 gust 27 Mostly Cloudy 24 99.5 -8 62 -14 -17
9:00 WSW 13 gust 24 Partly Cloudy 24 99.5 -9 58 -15 -17
8:00 WSW 13 gust 21 Partly Cloudy 24 99.5 -9 65 -15 -18
7:00 WSW 12 gust 21 Mainly Clear 24 99.4 -10 88 -12 -18
6:00 WSW 12 gust 20 Clear 24 99.3 -9 70 -14 -17
5:00 WSW 12 gust 20 Mainly Clear 24 99.3 -9 76 -13 -17
4:00 SW 10 gust 15 Clear 24 99.3 -9 73 -13 -17
3:00 WSW 12 gust 19 Clear 24 99.3 -9 73 -13 -17
2:00 WSW 13 gust 20 Clear 24 99.2 -9 73 -13 -17
1:00 WSW 17 gust 25 Partly Cloudy 24 99.2 -8 72 -12 -17
0:00 WSW 17 gust 27 Mainly Clear 24 99.2 -8 72 -12 -17
22 November 2014
23:00 W 18 gust 28 Mainly Clear 24 99.2 -8 73 -12 -17
22:00 W 15 gust 23 Partly Cloudy 24 99.2 -8 71 -12 -16
21:00 W 15 gust 23 Cloudy 24 99.2 -7 77 -11 -16
20:00 WSW 15 gust 22 Mainly Clear 24 99.2 -7 77 -11 -16
19:00 W 15 gust 25 Mainly Clear 24 99.2 -7 73 -11 -15
18:00 W 17 gust 27 Mostly Cloudy 24 99.2 -7 70 -12 -16
17:00 W 17 gust 25 Mostly Cloudy 24 99.2 -7 73 -11 -15
16:00 W 20 gust 30 Mostly Cloudy 24 99.1 -6 76 -10 -15
15:00 W 20 gust 30 Mostly Cloudy 24 99.1 -5 80 -8 -14
14:00 WNW 20 gust 30 Mostly Cloudy 24 99.0 -4 75 -8 -13
 
Map of Atlantic - Newfoundland marine weather areas Southwestern Grand Banks - 44138 Banquereau - 44139 Tail of the Bank - 44140 Nickerson Bank - 44251 Northeast Burgeo Bank - 44255 Blanc-Sablon Airport Cap Whittle Chevery Natashquan Airport Heath Point Miscou Island Grand Étang Ingonish Beach North Mountain St.Paul Island J.A. Douglas McCurdy Sydney Airport Charlottetown Airport East Point North Cape Argentia Bonavista Burgeo Cape Race Corner Brook Daniel's Harbour Englee Ferolle Point La Scie Port aux Basques Rocky Harbour Sagona Island St. Anthony Airport St. John's Int'l Airport St. Lawrence Stephenville Airport Twillingate Winterland Wreckhouse Cartwright Airport Mary's Harbour Grates Cove Pool's Island Marticot Island Long Pond Îles de la Madeleine Airport
Legend: buoyBuoy land stationLand Station